sensor_id;sensor_type;location;lat;lon;timestamp;pressure;altitude;pressure_sealevel;temperature;humidity
66627;BME280;53498;50.422;14.912;2023-05-21T00:02:16;99268.31;;;14.55;100.00
66627;BME280;53498;50.422;14.912;2023-05-21T00:04:43;99259.59;;;14.55;100.00
66627;BME280;53498;50.422;14.912;2023-05-21T00:07:09;99262.22;;;14.50;100.00
66627;BME280;53498;50.422;14.912;2023-05-21T00:09:36;99261.41;;;14.47;100.00
66627;BME280;53498;50.422;14.912;2023-05-21T00:12:06;99252.72;;;14.45;100.00
66627;BME280;53498;50.422;14.912;2023-05-21T00:14:32;99250.13;;;14.42;100.00
66627;BME280;53498;50.422;14.912;2023-05-21T00:16:58;99249.28;;;14.38;100.00
66627;BME280;53498;50.422;14.912;2023-05-21T00:19:24;99247.56;;;14.37;100.00
66627;BME280;53498;50.422;14.912;2023-05-21T00:21:49;99243.22;;;14.34;100.00
66627;BME280;53498;50.422;14.912;2023-05-21T00:24:15;99238.84;;;14.35;100.00
66627;BME280;53498;50.422;14.912;2023-05-21T00:26:40;99238.00;;;14.34;100.00
66627;BME280;53498;50.422;14.912;2023-05-21T00:29:06;99243.25;;;14.33;100.00
66627;BME280;53498;50.422;14.912;2023-05-21T00:31:32;99231.94;;;14.31;100.00
66627;BME280;53498;50.422;14.912;2023-05-21T00:33:58;99233.69;;;14.29;100.00
66627;BME280;53498;50.422;14.912;2023-05-21T00:36:23;99230.25;;;14.27;100.00
66627;BME280;53498;50.422;14.912;2023-05-21T00:38:50;99230.31;;;14.21;100.00
66627;BME280;53498;50.422;14.912;2023-05-21T00:41:16;99225.09;;;14.21;100.00
66627;BME280;53498;50.422;14.912;2023-05-21T00:43:42;99226.00;;;14.18;100.00
66627;BME280;53498;50.422;14.912;2023-05-21T00:46:17;99216.38;;;14.20;100.00
66627;BME280;53498;50.422;14.912;2023-05-21T00:48:44;99219.00;;;14.19;100.00
66627;BME280;53498;50.422;14.912;2023-05-21T00:51:10;99220.81;;;14.14;100.00
66627;BME280;53498;50.422;14.912;2023-05-21T00:53:36;99220.81;;;14.14;100.00
66627;BME280;53498;50.422;14.912;2023-05-21T00:56:02;99223.47;;;14.10;100.00
66627;BME280;53498;50.422;14.912;2023-05-21T00:58:28;99220.00;;;14.08;100.00
66627;BME280;53498;50.422;14.912;2023-05-21T01:00:55;99221.75;;;14.06;100.00
66627;BME280;53498;50.422;14.912;2023-05-21T01:03:23;99218.34;;;14.01;100.00
66627;BME280;53498;50.422;14.912;2023-05-21T01:05:50;99222.72;;;14.01;100.00
66627;BME280;53498;50.422;14.912;2023-05-21T01:08:20;99220.09;;;13.99;100.00
66627;BME280;53498;50.422;14.912;2023-05-21T01:10:50;99214.00;;;13.97;100.00
66627;BME280;53498;50.422;14.912;2023-05-21T01:13:16;99210.56;;;13.94;100.00
66627;BME280;53498;50.422;14.912;2023-05-21T01:15:43;99212.41;;;13.88;100.00
66627;BME280;53498;50.422;14.912;2023-05-21T01:18:10;99215.88;;;13.89;100.00
66627;BME280;53498;50.422;14.912;2023-05-21T01:20:36;99218.44;;;13.92;100.00
66627;BME280;53498;50.422;14.912;2023-05-21T01:23:02;99214.09;;;13.91;100.00
66627;BME280;53498;50.422;14.912;2023-05-21T01:25:28;99214.16;;;13.85;100.00
66627;BME280;53498;50.422;14.912;2023-05-21T01:27:53;99221.16;;;13.81;100.00
66627;BME280;53498;50.422;14.912;2023-05-21T01:30:20;99208.19;;;13.74;100.00
66627;BME280;53498;50.422;14.912;2023-05-21T01:35:25;99210.88;;;13.68;100.00
66627;BME280;53498;50.422;14.912;2023-05-21T01:38:19;99215.25;;;13.62;100.00
66627;BME280;53498;50.422;14.912;2023-05-21T01:40:56;99208.31;;;13.61;100.00
66627;BME280;53498;50.422;14.912;2023-05-21T01:43:26;99210.09;;;13.56;100.00
66627;BME280;53498;50.422;14.912;2023-05-21T01:45:54;99201.47;;;13.51;100.00
66627;BME280;53498;50.422;14.912;2023-05-21T01:48:21;99198.91;;;13.45;100.00
66627;BME280;53498;50.422;14.912;2023-05-21T01:50:48;99203.22;;;13.48;100.00
66627;BME280;53498;50.422;14.912;2023-05-21T01:53:14;99205.88;;;13.43;100.00
66627;BME280;53498;50.422;14.912;2023-05-21T01:55:41;99204.19;;;13.39;100.00
66627;BME280;53498;50.422;14.912;2023-05-21T01:58:08;99204.19;;;13.39;100.00
66627;BME280;53498;50.422;14.912;2023-05-21T02:00:34;99198.06;;;13.41;100.00
66627;BME280;53498;50.422;14.912;2023-05-21T02:03:00;99197.13;;;13.47;100.00
66627;BME280;53498;50.422;14.912;2023-05-21T02:05:25;99202.34;;;13.49;100.00
66627;BME280;53498;50.422;14.912;2023-05-21T02:07:51;99200.59;;;13.51;100.00
66627;BME280;53498;50.422;14.912;2023-05-21T02:10:17;99201.50;;;13.43;100.00
66627;BME280;53498;50.422;14.912;2023-05-21T02:12:43;99189.34;;;13.41;100.00
66627;BME280;53498;50.422;14.912;2023-05-21T02:15:08;99200.75;;;13.31;100.00
66627;BME280;53498;50.422;14.912;2023-05-21T02:17:35;99199.94;;;13.26;100.00
66627;BME280;53498;50.422;14.912;2023-05-21T02:20:03;99198.19;;;13.25;100.00
66627;BME280;53498;50.422;14.912;2023-05-21T02:22:40;99201.66;;;13.22;100.00
66627;BME280;53498;50.422;14.912;2023-05-21T02:25:07;99200.84;;;13.20;100.00
66627;BME280;53498;50.422;14.912;2023-05-21T02:27:37;99202.59;;;13.16;100.00
66627;BME280;53498;50.422;14.912;2023-05-21T02:30:11;99193.00;;;13.15;100.00
66627;BME280;53498;50.422;14.912;2023-05-21T02:32:37;99197.41;;;13.13;100.00
66627;BME280;53498;50.422;14.912;2023-05-21T02:35:07;99190.44;;;13.12;100.00
66627;BME280;53498;50.422;14.912;2023-05-21T02:37:34;99188.72;;;13.08;100.00
66627;BME280;53498;50.422;14.912;2023-05-21T02:40:03;99187.91;;;13.03;100.00
66627;BME280;53498;50.422;14.912;2023-05-21T02:42:30;99185.31;;;13.00;100.00
66627;BME280;53498;50.422;14.912;2023-05-21T02:44:56;99193.13;;;13.00;100.00
66627;BME280;53498;50.422;14.912;2023-05-21T02:47:21;99191.38;;;13.02;100.00
66627;BME280;53498;50.422;14.912;2023-05-21T02:49:49;99187.06;;;13.00;100.00
66627;BME280;53498;50.422;14.912;2023-05-21T02:52:15;99188.81;;;13.01;100.00
66627;BME280;53498;50.422;14.912;2023-05-21T02:54:45;99189.69;;;12.98;100.00
66627;BME280;53498;50.422;14.912;2023-05-21T02:57:11;99189.75;;;12.92;100.00
66627;BME280;53498;50.422;14.912;2023-05-21T02:59:37;99187.13;;;12.90;100.00
66627;BME280;53498;50.422;14.912;2023-05-21T03:02:02;99187.09;;;12.95;100.00
66627;BME280;53498;50.422;14.912;2023-05-21T03:04:28;99186.19;;;12.99;100.00
66627;BME280;53498;50.422;14.912;2023-05-21T03:06:54;99194.06;;;12.96;100.00
66627;BME280;53498;50.422;14.912;2023-05-21T03:09:21;99192.34;;;12.92;100.00
66627;BME280;53498;50.422;14.912;2023-05-21T03:11:47;99191.50;;;12.87;100.00
66627;BME280;53498;50.422;14.912;2023-05-21T03:14:13;99200.19;;;12.92;100.00
66627;BME280;53498;50.422;14.912;2023-05-21T03:16:39;99198.38;;;12.99;100.00
66627;BME280;53498;50.422;14.912;2023-05-21T03:19:06;99196.66;;;12.96;100.00
66627;BME280;53498;50.422;14.912;2023-05-21T03:21:32;99196.69;;;12.93;100.00
66627;BME280;53498;50.422;14.912;2023-05-21T03:23:58;99197.56;;;12.92;100.00
66627;BME280;53498;50.422;14.912;2023-05-21T03:26:25;99193.22;;;12.88;100.00
66627;BME280;53498;50.422;14.912;2023-05-21T03:28:54;99199.34;;;12.87;100.00
66627;BME280;53498;50.422;14.912;2023-05-21T03:31:24;99206.28;;;12.89;100.00
66627;BME280;53498;50.422;14.912;2023-05-21T03:33:49;99196.72;;;12.90;100.00
66627;BME280;53498;50.422;14.912;2023-05-21T03:36:16;99194.97;;;12.92;100.00
66627;BME280;53498;50.422;14.912;2023-05-21T03:38:41;99201.00;;;12.94;100.00
66627;BME280;53498;50.422;14.912;2023-05-21T03:41:07;99198.47;;;12.89;100.00
66627;BME280;53498;50.422;14.912;2023-05-21T03:43:33;99194.94;;;12.95;100.00
66627;BME280;53498;50.422;14.912;2023-05-21T03:45:58;99203.59;;;12.97;100.00
66627;BME280;53498;50.422;14.912;2023-05-21T03:48:24;99194.91;;;12.98;100.00
66627;BME280;53498;50.422;14.912;2023-05-21T03:50:49;99194.91;;;13.01;100.00
66627;BME280;53498;50.422;14.912;2023-05-21T03:53:15;99193.13;;;13.02;100.00
66627;BME280;53498;50.422;14.912;2023-05-21T03:55:41;99187.91;;;13.02;100.00
66627;BME280;53498;50.422;14.912;2023-05-21T03:58:07;99195.72;;;13.03;100.00
66627;BME280;53498;50.422;14.912;2023-05-21T04:00:36;99194.84;;;13.07;100.00
66627;BME280;53498;50.422;14.912;2023-05-21T04:03:05;99189.56;;;13.13;100.00
66627;BME280;53498;50.422;14.912;2023-05-21T04:05:32;99194.78;;;13.16;100.00
66627;BME280;53498;50.422;14.912;2023-05-21T04:07:58;99184.28;;;13.23;100.00
66627;BME280;53498;50.422;14.912;2023-05-21T04:10:25;99189.44;;;13.32;100.00
66627;BME280;53498;50.422;14.912;2023-05-21T04:12:51;99194.59;;;13.38;100.00
66627;BME280;53498;50.422;14.912;2023-05-21T04:15:18;99191.88;;;13.49;100.00
66627;BME280;53498;50.422;14.912;2023-05-21T04:17:44;99195.25;;;13.60;100.00
66627;BME280;53498;50.422;14.912;2023-05-21T04:20:13;99200.47;;;13.61;100.00
66627;BME280;53498;50.422;14.912;2023-05-21T04:22:41;99193.44;;;13.68;100.00
66627;BME280;53498;50.422;14.912;2023-05-21T04:25:07;99196.91;;;13.70;100.00
66627;BME280;53498;50.422;14.912;2023-05-21T04:27:34;99192.47;;;13.75;100.00
66627;BME280;53498;50.422;14.912;2023-05-21T04:30:00;99190.59;;;13.88;100.00
66627;BME280;53498;50.422;14.912;2023-05-21T04:32:32;99189.44;;;14.12;100.00
66627;BME280;53498;50.422;14.912;2023-05-21T04:35:00;99191.00;;;14.27;100.00
66627;BME280;53498;50.422;14.912;2023-05-21T04:37:29;99191.81;;;14.30;100.00
66627;BME280;53498;50.422;14.912;2023-05-21T04:39:58;99197.84;;;14.39;100.00
66627;BME280;53498;50.422;14.912;2023-05-21T04:42:25;99198.63;;;14.44;100.00
66627;BME280;53498;50.422;14.912;2023-05-21T04:44:51;99200.28;;;14.49;100.00
66627;BME280;53498;50.422;14.912;2023-05-21T04:47:19;99207.16;;;14.60;100.00
66627;BME280;53498;50.422;14.912;2023-05-21T04:49:45;99205.25;;;14.69;100.00
66627;BME280;53498;50.422;14.912;2023-05-21T04:52:11;99205.16;;;14.77;100.00
66627;BME280;53498;50.422;14.912;2023-05-21T04:54:37;99205.00;;;14.89;100.00
66627;BME280;53498;50.422;14.912;2023-05-21T04:57:05;99204.09;;;14.92;100.00
66627;BME280;53498;50.422;14.912;2023-05-21T04:59:31;99208.22;;;15.05;100.00
66627;BME280;53498;50.422;14.912;2023-05-21T05:01:56;99209.84;;;15.14;100.00
66627;BME280;53498;50.422;14.912;2023-05-21T05:04:22;99201.94;;;15.15;100.00
66627;BME280;53498;50.422;14.912;2023-05-21T05:06:47;99197.41;;;15.26;100.00
66627;BME280;53498;50.422;14.912;2023-05-21T05:09:13;99198.09;;;15.36;100.00
66627;BME280;53498;50.422;14.912;2023-05-21T05:11:39;99197.84;;;15.52;100.00
66627;BME280;53498;50.422;14.912;2023-05-21T05:14:05;99183.59;;;15.65;100.00
66627;BME280;53498;50.422;14.912;2023-05-21T05:16:31;99178.81;;;15.88;100.00
66627;BME280;53498;50.422;14.912;2023-05-21T05:18:57;99180.66;;;15.83;100.00
66627;BME280;53498;50.422;14.912;2023-05-21T05:21:22;99179.41;;;16.01;100.00
66627;BME280;53498;50.422;14.912;2023-05-21T05:23:48;99193.88;;;16.22;99.74
66627;BME280;53498;50.422;14.912;2023-05-21T05:26:14;99183.13;;;16.34;98.98
66627;BME280;53498;50.422;14.912;2023-05-21T05:28:40;99183.91;;;16.38;99.21
66627;BME280;53498;50.422;14.912;2023-05-21T05:31:05;99180.03;;;16.54;97.85
66627;BME280;53498;50.422;14.912;2023-05-21T05:33:31;99178.31;;;16.55;98.43
66627;BME280;53498;50.422;14.912;2023-05-21T05:35:56;99180.72;;;16.64;98.29
66627;BME280;53498;50.422;14.912;2023-05-21T05:38:22;99177.59;;;16.85;97.00
66627;BME280;53498;50.422;14.912;2023-05-21T05:40:48;99177.59;;;16.87;97.16
66627;BME280;53498;50.422;14.912;2023-05-21T05:43:13;99178.63;;;17.16;95.88
66627;BME280;53498;50.422;14.912;2023-05-21T05:45:39;99187.50;;;17.46;94.77
66627;BME280;53498;50.422;14.912;2023-05-21T05:48:05;99188.91;;;17.59;93.82
66627;BME280;53498;50.422;14.912;2023-05-21T05:50:30;99187.19;;;17.58;93.79
66627;BME280;53498;50.422;14.912;2023-05-21T05:52:56;99177.84;;;17.80;93.28
66627;BME280;53498;50.422;14.912;2023-05-21T05:55:21;99177.94;;;17.77;91.80
66627;BME280;53498;50.422;14.912;2023-05-21T05:57:49;99182.19;;;18.13;92.03
66627;BME280;53498;50.422;14.912;2023-05-21T06:00:15;99177.16;;;18.35;90.78
66627;BME280;53498;50.422;14.912;2023-05-21T06:02:41;99181.03;;;18.51;88.71
66627;BME280;53498;50.422;14.912;2023-05-21T06:05:07;99179.63;;;19.24;86.47
66627;BME280;53498;50.422;14.912;2023-05-21T06:07:38;99176.09;;;20.92;78.19
66627;BME280;53498;50.422;14.912;2023-05-21T06:10:05;99171.78;;;21.75;70.68
66627;BME280;53498;50.422;14.912;2023-05-21T06:12:31;99173.91;;;22.64;67.08
66627;BME280;53498;50.422;14.912;2023-05-21T06:14:57;99174.91;;;23.34;63.63
66627;BME280;53498;50.422;14.912;2023-05-21T06:17:23;99174.75;;;23.20;61.70
66627;BME280;53498;50.422;14.912;2023-05-21T06:19:48;99169.97;;;22.90;63.74
66627;BME280;53498;50.422;14.912;2023-05-21T06:22:14;99173.81;;;22.47;66.55
66627;BME280;53498;50.422;14.912;2023-05-21T06:24:39;99175.38;;;22.89;64.55
66627;BME280;53498;50.422;14.912;2023-05-21T06:27:05;99175.59;;;22.84;64.09
66627;BME280;53498;50.422;14.912;2023-05-21T06:29:30;99169.53;;;22.63;64.39
66627;BME280;53498;50.422;14.912;2023-05-21T06:31:56;99164.84;;;22.11;68.88
66627;BME280;53498;50.422;14.912;2023-05-21T06:34:21;99167.47;;;22.32;68.96
66627;BME280;53498;50.422;14.912;2023-05-21T06:36:47;99161.78;;;21.81;69.88
66627;BME280;53498;50.422;14.912;2023-05-21T06:39:13;99163.06;;;21.10;72.89
66627;BME280;53498;50.422;14.912;2023-05-21T06:41:38;99168.69;;;21.22;73.25
66627;BME280;53498;50.422;14.912;2023-05-21T06:44:04;99167.94;;;20.76;72.78
66627;BME280;53498;50.422;14.912;2023-05-21T06:46:30;99166.84;;;21.02;73.25
66627;BME280;53498;50.422;14.912;2023-05-21T06:48:56;99164.00;;;21.29;72.41
66627;BME280;53498;50.422;14.912;2023-05-21T06:51:22;99162.69;;;21.19;71.92
66627;BME280;53498;50.422;14.912;2023-05-21T06:53:47;99170.41;;;21.45;71.08
66627;BME280;53498;50.422;14.912;2023-05-21T06:56:13;99164.31;;;21.64;71.60
66627;BME280;53498;50.422;14.912;2023-05-21T06:58:38;99165.31;;;21.41;71.16
66627;BME280;53498;50.422;14.912;2023-05-21T07:01:04;99166.03;;;21.44;70.77
66627;BME280;53498;50.422;14.912;2023-05-21T07:03:30;99157.66;;;21.13;71.46
66627;BME280;53498;50.422;14.912;2023-05-21T07:05:58;99166.00;;;21.02;71.57
66627;BME280;53498;50.422;14.912;2023-05-21T07:08:23;99161.78;;;20.98;72.09
66627;BME280;53498;50.422;14.912;2023-05-21T07:10:49;99160.19;;;21.36;70.26
66627;BME280;53498;50.422;14.912;2023-05-21T07:13:15;99164.84;;;21.52;69.97
66627;BME280;53498;50.422;14.912;2023-05-21T07:15:41;99167.63;;;21.48;70.89
66627;BME280;53498;50.422;14.912;2023-05-21T07:18:06;99160.81;;;21.63;68.80
66627;BME280;53498;50.422;14.912;2023-05-21T07:20:32;99164.13;;;21.48;68.45
66627;BME280;53498;50.422;14.912;2023-05-21T07:22:57;99164.91;;;21.50;68.26
66627;BME280;53498;50.422;14.912;2023-05-21T07:25:23;99163.13;;;22.10;67.17
66627;BME280;53498;50.422;14.912;2023-05-21T07:27:49;99161.78;;;21.81;65.99
66627;BME280;53498;50.422;14.912;2023-05-21T07:30:15;99164.91;;;21.70;65.83
66627;BME280;53498;50.422;14.912;2023-05-21T07:32:40;99157.69;;;21.74;65.46
66627;BME280;53498;50.422;14.912;2023-05-21T07:35:06;99168.22;;;21.76;65.70
66627;BME280;53498;50.422;14.912;2023-05-21T07:37:32;99164.53;;;21.99;64.70
66627;BME280;53498;50.422;14.912;2023-05-21T07:39:58;99160.94;;;22.20;63.90
66627;BME280;53498;50.422;14.912;2023-05-21T07:42:24;99171.47;;;22.40;62.77
66627;BME280;53498;50.422;14.912;2023-05-21T07:44:50;99165.13;;;22.81;62.25
66627;BME280;53498;50.422;14.912;2023-05-21T07:47:15;99166.09;;;22.61;62.06
66627;BME280;53498;50.422;14.912;2023-05-21T07:49:41;99169.72;;;22.77;62.45
66627;BME280;53498;50.422;14.912;2023-05-21T07:52:07;99164.94;;;22.67;60.72
66627;BME280;53498;50.422;14.912;2023-05-21T07:54:32;99165.28;;;22.59;61.60
66627;BME280;53498;50.422;14.912;2023-05-21T07:56:58;99161.84;;;22.95;59.75
66627;BME280;53498;50.422;14.912;2023-05-21T07:59:27;99162.66;;;23.14;60.38
66627;BME280;53498;50.422;14.912;2023-05-21T08:01:53;99161.78;;;23.14;59.46
66627;BME280;53498;50.422;14.912;2023-05-21T08:04:19;99172.22;;;22.99;59.37
66627;BME280;53498;50.422;14.912;2023-05-21T08:06:44;99160.31;;;23.25;59.51
66627;BME280;53498;50.422;14.912;2023-05-21T08:09:10;99161.72;;;23.32;58.61
66627;BME280;53498;50.422;14.912;2023-05-21T08:11:36;99173.22;;;22.97;58.09
66627;BME280;53498;50.422;14.912;2023-05-21T08:14:02;99166.63;;;23.23;59.19
66627;BME280;53498;50.422;14.912;2023-05-21T08:16:28;99175.59;;;23.38;59.71
66627;BME280;53498;50.422;14.912;2023-05-21T08:18:53;99172.78;;;23.41;56.81
66627;BME280;53498;50.422;14.912;2023-05-21T08:21:19;99168.03;;;23.30;57.68
66627;BME280;53498;50.422;14.912;2023-05-21T08:23:45;99172.19;;;23.36;57.35
66627;BME280;53498;50.422;14.912;2023-05-21T08:26:10;99164.34;;;23.50;57.41
66627;BME280;53498;50.422;14.912;2023-05-21T08:28:37;99168.13;;;23.81;57.22
66627;BME280;53498;50.422;14.912;2023-05-21T08:31:03;99158.91;;;23.70;57.23
66627;BME280;53498;50.422;14.912;2023-05-21T08:33:28;99158.41;;;23.62;56.17
66627;BME280;53498;50.422;14.912;2023-05-21T08:35:54;99161.00;;;23.46;57.43
66627;BME280;53498;50.422;14.912;2023-05-21T08:38:20;99164.81;;;23.41;55.93
66627;BME280;53498;50.422;14.912;2023-05-21T08:40:46;99164.88;;;23.75;55.19
66627;BME280;53498;50.422;14.912;2023-05-21T08:43:15;99170.59;;;24.01;54.09
66627;BME280;53498;50.422;14.912;2023-05-21T08:45:44;99166.63;;;23.75;54.99
66627;BME280;53498;50.422;14.912;2023-05-21T08:48:10;99160.78;;;23.86;52.99
66627;BME280;53498;50.422;14.912;2023-05-21T08:50:39;99160.13;;;23.98;53.67
66627;BME280;53498;50.422;14.912;2023-05-21T08:53:05;99162.88;;;24.12;52.61
66627;BME280;53498;50.422;14.912;2023-05-21T08:55:31;99162.88;;;24.12;53.21
66627;BME280;53498;50.422;14.912;2023-05-21T08:57:57;99160.56;;;24.06;54.24
66627;BME280;53498;50.422;14.912;2023-05-21T09:00:22;99155.94;;;23.76;52.52
66627;BME280;53498;50.422;14.912;2023-05-21T09:02:49;99158.66;;;23.75;52.71
66627;BME280;53498;50.422;14.912;2023-05-21T09:05:15;99153.56;;;23.88;52.60
66627;BME280;53498;50.422;14.912;2023-05-21T09:08:01;99160.00;;;23.49;54.14
66627;BME280;53498;50.422;14.912;2023-05-21T09:10:35;99155.25;;;23.38;54.45
66627;BME280;53498;50.422;14.912;2023-05-21T09:13:02;99146.56;;;23.52;55.12
66627;BME280;53498;50.422;14.912;2023-05-21T09:15:27;99152.81;;;23.51;54.05
66627;BME280;53498;50.422;14.912;2023-05-21T09:17:54;99163.91;;;23.24;53.60
66627;BME280;53498;50.422;14.912;2023-05-21T09:20:24;99158.91;;;23.18;54.21
66627;BME280;53498;50.422;14.912;2023-05-21T09:22:51;99156.88;;;23.58;54.84
66627;BME280;53498;50.422;14.912;2023-05-21T09:25:20;99153.97;;;23.80;53.77
66627;BME280;53498;50.422;14.912;2023-05-21T09:27:46;99150.16;;;23.16;53.65
66627;BME280;53498;50.422;14.912;2023-05-21T09:30:13;99156.81;;;23.42;53.82
66627;BME280;53498;50.422;14.912;2023-05-21T09:32:40;99151.09;;;23.32;54.39
66627;BME280;53498;50.422;14.912;2023-05-21T09:35:10;99156.09;;;23.04;54.38
66627;BME280;53498;50.422;14.912;2023-05-21T09:37:43;99150.47;;;23.80;54.15
66627;BME280;53498;50.422;14.912;2023-05-21T09:42:38;99146.88;;;24.30;51.21
66627;BME280;53498;50.422;14.912;2023-05-21T09:45:04;99141.38;;;23.84;53.42
66627;BME280;53498;50.422;14.912;2023-05-21T09:47:30;99142.63;;;23.59;52.51
66627;BME280;53498;50.422;14.912;2023-05-21T09:49:59;99134.78;;;23.58;53.19
66627;BME280;53498;50.422;14.912;2023-05-21T09:52:25;99144.22;;;23.63;53.13
66627;BME280;53498;50.422;14.912;2023-05-21T09:54:52;99138.25;;;23.93;53.27
66627;BME280;53498;50.422;14.912;2023-05-21T09:57:28;99141.19;;;24.04;51.62
66627;BME280;53498;50.422;14.912;2023-05-21T09:59:53;99136.44;;;23.93;50.69
66627;BME280;53498;50.422;14.912;2023-05-21T10:02:20;99139.41;;;23.87;50.96
66627;BME280;53498;50.422;14.912;2023-05-21T10:04:48;99126.03;;;23.73;52.24
66627;BME280;53498;50.422;14.912;2023-05-21T10:07:17;99130.59;;;23.87;51.92
66627;BME280;53498;50.422;14.912;2023-05-21T10:09:46;99127.06;;;24.19;52.64
66627;BME280;53498;50.422;14.912;2023-05-21T10:12:13;99129.19;;;24.29;50.45
66627;BME280;53498;50.422;14.912;2023-05-21T10:14:42;99121.41;;;24.26;51.70
66627;BME280;53498;50.422;14.912;2023-05-21T10:17:10;99127.00;;;24.68;51.60
66627;BME280;53498;50.422;14.912;2023-05-21T10:19:37;99119.06;;;24.99;48.79
66627;BME280;53498;50.422;14.912;2023-05-21T10:22:05;99120.69;;;24.06;51.16
66627;BME280;53498;50.422;14.912;2023-05-21T10:24:30;99115.81;;;24.14;51.63
66627;BME280;53498;50.422;14.912;2023-05-21T10:26:57;99116.97;;;24.74;50.29
66627;BME280;53498;50.422;14.912;2023-05-21T10:29:24;99123.78;;;24.48;48.00
66627;BME280;53498;50.422;14.912;2023-05-21T10:31:51;99121.38;;;24.10;49.78
66627;BME280;53498;50.422;14.912;2023-05-21T10:34:18;99117.50;;;24.49;47.91
66627;BME280;53498;50.422;14.912;2023-05-21T10:36:45;99105.53;;;24.40;48.92
66627;BME280;53498;50.422;14.912;2023-05-21T10:39:11;99113.25;;;24.29;49.43
66627;BME280;53498;50.422;14.912;2023-05-21T10:41:48;99107.44;;;24.69;49.07
66627;BME280;53498;50.422;14.912;2023-05-21T10:47:17;99110.66;;;24.90;48.22
66627;BME280;53498;50.422;14.912;2023-05-21T10:50:02;99105.47;;;24.73;45.87
66627;BME280;53498;50.422;14.912;2023-05-21T10:53:12;99103.50;;;24.61;45.93
66627;BME280;53498;50.422;14.912;2023-05-21T10:58:34;99092.25;;;25.18;46.63
66627;BME280;53498;50.422;14.912;2023-05-21T11:01:04;99098.31;;;24.89;44.77
66627;BME280;53498;50.422;14.912;2023-05-21T11:03:32;99097.13;;;25.09;44.88
66627;BME280;53498;50.422;14.912;2023-05-21T11:06:01;99094.81;;;25.03;45.63
66627;BME280;53498;50.422;14.912;2023-05-21T11:08:29;99090.03;;;24.64;45.70
66627;BME280;53498;50.422;14.912;2023-05-21T11:11:00;99091.97;;;25.06;44.58
66627;BME280;53498;50.422;14.912;2023-05-21T11:13:28;99094.97;;;24.86;43.76
66627;BME280;53498;50.422;14.912;2023-05-21T11:21:13;99087.13;;;25.29;40.91
66627;BME280;53498;50.422;14.912;2023-05-21T11:23:55;99078.22;;;25.30;41.68
66627;BME280;53498;50.422;14.912;2023-05-21T11:26:25;99081.94;;;25.11;41.06
66627;BME280;53498;50.422;14.912;2023-05-21T11:31:29;99079.91;;;25.17;40.35
66627;BME280;53498;50.422;14.912;2023-05-21T11:34:18;99081.59;;;25.18;42.09
66627;BME280;53498;50.422;14.912;2023-05-21T11:36:45;99072.84;;;25.15;42.50
66627;BME280;53498;50.422;14.912;2023-05-21T11:39:18;99082.19;;;25.07;41.36
66627;BME280;53498;50.422;14.912;2023-05-21T11:41:52;99087.63;;;25.50;41.67
66627;BME280;53498;50.422;14.912;2023-05-21T11:44:35;99084.88;;;25.37;40.53
66627;BME280;53498;50.422;14.912;2023-05-21T11:47:01;99086.94;;;25.32;40.83
66627;BME280;53498;50.422;14.912;2023-05-21T11:49:27;99080.09;;;25.28;41.49
66627;BME280;53498;50.422;14.912;2023-05-21T11:51:53;99082.38;;;25.20;41.48
66627;BME280;53498;50.422;14.912;2023-05-21T11:54:19;99078.75;;;25.21;42.20
66627;BME280;53498;50.422;14.912;2023-05-21T11:56:45;99073.81;;;24.99;42.83
66627;BME280;53498;50.422;14.912;2023-05-21T11:59:13;99063.94;;;25.31;41.61
66627;BME280;53498;50.422;14.912;2023-05-21T12:01:41;99067.06;;;25.37;42.05
66627;BME280;53498;50.422;14.912;2023-05-21T12:04:07;99069.19;;;25.32;41.16
66627;BME280;53498;50.422;14.912;2023-05-21T12:06:32;99067.47;;;25.01;42.42
66627;BME280;53498;50.422;14.912;2023-05-21T12:08:58;99065.03;;;25.12;41.51
66627;BME280;53498;50.422;14.912;2023-05-21T12:11:24;99050.63;;;25.31;41.71
66627;BME280;53498;50.422;14.912;2023-05-21T12:13:51;99054.91;;;25.48;41.40
66627;BME280;53498;50.422;14.912;2023-05-21T12:16:17;99060.84;;;25.67;41.58
66627;BME280;53498;50.422;14.912;2023-05-21T12:18:43;99056.53;;;25.65;43.48
66627;BME280;53498;50.422;14.912;2023-05-21T12:21:09;99057.19;;;25.39;43.46
66627;BME280;53498;50.422;14.912;2023-05-21T12:23:35;99056.81;;;25.46;41.84
66627;BME280;53498;50.422;14.912;2023-05-21T12:26:00;99061.22;;;25.61;39.75
66627;BME280;53498;50.422;14.912;2023-05-21T12:28:28;99053.50;;;25.71;40.36
66627;BME280;53498;50.422;14.912;2023-05-21T12:30:53;99060.16;;;25.64;40.40
66627;BME280;53498;50.422;14.912;2023-05-21T12:33:19;99052.53;;;25.72;39.74
66627;BME280;53498;50.422;14.912;2023-05-21T12:35:45;99051.41;;;25.61;40.14
66627;BME280;53498;50.422;14.912;2023-05-21T12:38:14;99051.03;;;25.39;39.51
66627;BME280;53498;50.422;14.912;2023-05-21T12:40:40;99054.75;;;25.79;39.93
66627;BME280;53498;50.422;14.912;2023-05-21T12:43:10;99058.44;;;25.91;38.45
66627;BME280;53498;50.422;14.912;2023-05-21T12:45:36;99060.34;;;25.46;39.48
66627;BME280;53498;50.422;14.912;2023-05-21T12:48:03;99058.91;;;25.69;39.18
66627;BME280;53498;50.422;14.912;2023-05-21T12:50:31;99049.69;;;25.60;39.27
66627;BME280;53498;50.422;14.912;2023-05-21T12:52:57;99047.78;;;25.62;39.34
66627;BME280;53498;50.422;14.912;2023-05-21T12:55:23;99041.03;;;25.57;38.71
66627;BME280;53498;50.422;14.912;2023-05-21T12:58:12;99046.72;;;25.51;38.66
66627;BME280;53498;50.422;14.912;2023-05-21T13:00:40;99048.63;;;25.63;38.01
66627;BME280;53498;50.422;14.912;2023-05-21T13:03:06;99044.94;;;25.51;38.91
66627;BME280;53498;50.422;14.912;2023-05-21T13:05:31;99037.31;;;25.31;37.65